createdAt,value
2018-09-23T00:00:15.632Z,1010.73
2018-09-23T00:01:15.600Z,1010.72
2018-09-23T00:02:15.566Z,1010.68
2018-09-23T00:03:15.546Z,1010.68
2018-09-23T00:04:15.500Z,1010.72
2018-09-23T00:05:15.463Z,1010.64
2018-09-23T00:06:15.434Z,1010.63
2018-09-23T00:07:15.401Z,1010.61
2018-09-23T00:08:15.378Z,1010.62
2018-09-23T00:09:15.337Z,1010.58
2018-09-23T00:10:15.307Z,1010.53
2018-09-23T00:11:15.272Z,1010.50
2018-09-23T00:12:15.240Z,1010.47
2018-09-23T00:13:15.215Z,1010.47
2018-09-23T00:14:15.172Z,1010.43
2018-09-23T00:15:15.140Z,1010.43
2018-09-23T00:16:15.110Z,1010.41
2018-09-23T00:17:15.079Z,1010.37
2018-09-23T00:18:15.066Z,1010.37
2018-09-23T00:19:15.026Z,1010.37
2018-09-23T00:20:14.982Z,1010.34
2018-09-23T00:21:14.948Z,1010.37
2018-09-23T00:22:14.998Z,1010.35
2018-09-23T00:23:14.886Z,1010.35
2018-09-23T00:24:14.860Z,1010.32
2018-09-23T00:25:14.816Z,1010.35
2018-09-23T00:26:14.785Z,1010.35
2018-09-23T00:27:14.759Z,1010.37
2018-09-23T00:28:14.719Z,1010.31
2018-09-23T00:29:14.697Z,1010.36
2018-09-23T00:30:14.655Z,1010.35
2018-09-23T00:31:14.626Z,1010.31
2018-09-23T00:32:14.588Z,1010.30
2018-09-23T00:33:14.557Z,1010.33
2018-09-23T00:34:14.536Z,1010.35
2018-09-23T00:35:14.492Z,1010.38
2018-09-23T00:36:14.461Z,1010.38
2018-09-23T00:37:14.423Z,1010.37
2018-09-23T00:38:14.394Z,1010.31
2018-09-23T00:39:14.371Z,1010.33
2018-09-23T00:40:14.329Z,1010.33
2018-09-23T00:41:14.300Z,1010.38
2018-09-23T00:42:14.265Z,1010.33
2018-09-23T00:43:14.235Z,1010.36
2018-09-23T00:44:14.216Z,1010.39
2018-09-23T00:45:14.171Z,1010.41
2018-09-23T00:46:14.135Z,1010.42
2018-09-23T00:47:14.104Z,1010.38
2018-09-23T00:48:14.069Z,1010.37
2018-09-23T00:49:14.049Z,1010.37
2018-09-23T00:50:14.004Z,1010.38
2018-09-23T00:51:13.973Z,1010.34
2018-09-23T00:52:13.941Z,1010.28
2018-09-23T00:53:13.913Z,1010.24
2018-09-23T00:54:13.889Z,1010.20
2018-09-23T00:55:13.845Z,1010.22
2018-09-23T00:56:13.813Z,1010.20
2018-09-23T00:57:13.778Z,1010.21
2018-09-23T00:58:13.745Z,1010.14
2018-09-23T00:59:13.710Z,1010.14
2018-09-23T01:00:13.687Z,1010.16
2018-09-23T01:01:13.645Z,1010.17
2018-09-23T01:02:13.613Z,1010.15
2018-09-23T01:03:13.581Z,1010.18
2018-09-23T01:04:13.550Z,1010.16
2018-09-23T01:05:13.528Z,1010.13
2018-09-23T01:06:13.484Z,1010.13
2018-09-23T01:07:13.462Z,1010.07
2018-09-23T01:08:13.421Z,1010.02
2018-09-23T01:09:13.387Z,1009.98
2018-09-23T01:10:13.365Z,1010.05
2018-09-23T01:11:13.321Z,1010.01
2018-09-23T01:12:13.290Z,1010.01
2018-09-23T01:13:13.260Z,1009.94
2018-09-23T01:14:13.220Z,1009.93
2018-09-23T01:15:13.202Z,1009.96
2018-09-23T01:16:13.161Z,1009.91
2018-09-23T01:17:13.124Z,1009.91
2018-09-23T01:18:13.093Z,1009.92
2018-09-23T01:19:13.060Z,1009.90
2018-09-23T01:20:13.035Z,1009.91
2018-09-23T01:21:12.999Z,1009.90
2018-09-23T01:22:12.963Z,1009.83
2018-09-23T01:23:12.930Z,1009.85
2018-09-23T01:24:12.898Z,1009.80
2018-09-23T01:25:12.870Z,1009.86
2018-09-23T01:26:12.838Z,1009.81
2018-09-23T01:27:12.799Z,1009.81
2018-09-23T01:28:12.767Z,1009.78
2018-09-23T01:29:12.736Z,1009.78
2018-09-23T01:30:12.716Z,1009.74
2018-09-23T01:31:12.670Z,1009.70
2018-09-23T01:32:12.639Z,1009.71
2018-09-23T01:33:12.605Z,1009.75
2018-09-23T01:34:12.573Z,1009.71
2018-09-23T01:35:12.539Z,1009.69
2018-09-23T01:36:12.521Z,1009.70
2018-09-23T01:37:12.483Z,1009.65
2018-09-23T01:38:12.448Z,1009.63
2018-09-23T01:39:12.416Z,1009.60
2018-09-23T01:40:12.381Z,1009.56
2018-09-23T01:41:12.357Z,1009.53
2018-09-23T01:42:12.317Z,1009.54
2018-09-23T01:43:12.285Z,1009.55
2018-09-23T01:44:12.248Z,1009.47
2018-09-23T01:45:12.218Z,1009.54
2018-09-23T01:46:12.206Z,1009.51
2018-09-23T01:47:12.153Z,1009.48
2018-09-23T01:48:12.116Z,1009.50
2018-09-23T01:49:12.087Z,1009.44
2018-09-23T01:50:12.055Z,1009.41
2018-09-23T01:51:12.030Z,1009.38
2018-09-23T01:52:11.988Z,1009.44
2018-09-23T01:53:11.953Z,1009.48
2018-09-23T01:54:11.924Z,1009.43
2018-09-23T01:55:11.889Z,1009.41
2018-09-23T01:56:11.884Z,1009.42
2018-09-23T01:57:11.827Z,1009.40
2018-09-23T01:58:11.793Z,1009.34
2018-09-23T01:59:11.758Z,1009.40
2018-09-23T02:00:11.728Z,1009.38
2018-09-23T02:01:11.695Z,1009.36
2018-09-23T02:02:11.675Z,1009.37
2018-09-23T02:03:11.632Z,1009.29
2018-09-23T02:04:11.598Z,1009.31
2018-09-23T02:05:11.565Z,1009.31
2018-09-23T02:06:11.532Z,1009.33
2018-09-23T02:07:11.507Z,1009.31
2018-09-23T02:08:11.468Z,1009.30
2018-09-23T02:09:11.436Z,1009.28
2018-09-23T02:10:11.409Z,1009.28
2018-09-23T02:11:11.372Z,1009.26
2018-09-23T02:12:11.352Z,1009.23
2018-09-23T02:13:11.306Z,1009.23
2018-09-23T02:14:11.274Z,1009.26
2018-09-23T02:15:11.245Z,1009.23
2018-09-23T02:16:11.209Z,1009.26
2018-09-23T02:17:11.185Z,1009.22
2018-09-23T02:18:11.145Z,1009.23
2018-09-23T02:19:11.116Z,1009.19
2018-09-23T02:20:11.081Z,1009.16
2018-09-23T02:21:11.059Z,1009.18
2018-09-23T02:22:11.029Z,1009.12
2018-09-23T02:23:10.983Z,1009.11
2018-09-23T02:24:10.955Z,1009.12
2018-09-23T02:25:10.915Z,1009.08
2018-09-23T02:26:10.884Z,1009.10
2018-09-23T02:27:10.871Z,1009.10
2018-09-23T02:28:10.822Z,1009.10
2018-09-23T02:29:10.789Z,1009.07
2018-09-23T02:30:10.757Z,1009.03
2018-09-23T02:31:10.725Z,1009.01
2018-09-23T02:32:10.688Z,1008.99
2018-09-23T02:33:10.669Z,1008.95
2018-09-23T02:34:10.624Z,1008.97
2018-09-23T02:35:10.598Z,1008.94
2018-09-23T02:36:10.567Z,1008.92
2018-09-23T02:37:10.528Z,1008.88
2018-09-23T02:38:10.507Z,1008.89
2018-09-23T02:39:10.462Z,1008.90
2018-09-23T02:40:10.431Z,1008.93
2018-09-23T02:41:10.401Z,1008.94
2018-09-23T02:42:10.364Z,1008.84
2018-09-23T02:43:10.343Z,1008.82
2018-09-23T02:44:10.312Z,1008.81
2018-09-23T02:45:10.266Z,1008.75
2018-09-23T02:46:10.237Z,1008.71
2018-09-23T02:47:10.203Z,1008.69
2018-09-23T02:48:10.178Z,1008.69
2018-09-23T02:49:10.138Z,1008.63
2018-09-23T02:50:10.107Z,1008.65
2018-09-23T02:51:10.073Z,1008.65
2018-09-23T02:52:10.040Z,1008.65
2018-09-23T02:53:10.017Z,1008.62
2018-09-23T02:54:09.977Z,1008.64
2018-09-23T02:55:09.943Z,1008.58
2018-09-23T02:56:09.913Z,1008.60
2018-09-23T02:57:09.875Z,1008.56
2018-09-23T02:58:09.854Z,1008.57
2018-09-23T02:59:09.815Z,1008.56
2018-09-23T03:00:09.782Z,1008.55
2018-09-23T03:01:09.749Z,1008.58
2018-09-23T03:02:09.718Z,1008.56
2018-09-23T03:03:09.705Z,1008.56
2018-09-23T03:04:09.652Z,1008.52
2018-09-23T03:05:09.619Z,1008.53
2018-09-23T03:06:09.594Z,1008.48
2018-09-23T03:07:09.558Z,1008.49
2018-09-23T03:08:09.522Z,1008.48
2018-09-23T03:09:09.497Z,1008.49
2018-09-23T03:10:09.461Z,1008.50
2018-09-23T03:11:09.424Z,1008.49
2018-09-23T03:12:09.392Z,1008.43
2018-09-23T03:13:09.359Z,1008.40
2018-09-23T03:14:09.342Z,1008.39
2018-09-23T03:15:09.298Z,1008.37
2018-09-23T03:16:09.269Z,1008.37
2018-09-23T03:17:09.232Z,1008.35
2018-09-23T03:18:09.199Z,1008.41
2018-09-23T03:19:09.177Z,1008.39
2018-09-23T03:20:09.133Z,1008.39
2018-09-23T03:21:09.098Z,1008.36
2018-09-23T03:22:09.067Z,1008.35
2018-09-23T03:23:09.037Z,1008.33
2018-09-23T03:24:09.015Z,1008.29
2018-09-23T03:25:08.977Z,1008.27
2018-09-23T03:26:08.987Z,1008.30
2018-09-23T03:27:08.910Z,1008.25
2018-09-23T03:28:08.877Z,1008.21
2018-09-23T03:29:08.852Z,1008.21
2018-09-23T03:30:08.811Z,1008.18
2018-09-23T03:31:08.777Z,1008.20
2018-09-23T03:32:08.841Z,1008.22
2018-09-23T03:33:08.710Z,1008.21
2018-09-23T03:34:08.696Z,1008.25
2018-09-23T03:35:08.647Z,1008.25
2018-09-23T03:36:08.616Z,1008.26
2018-09-23T03:37:08.585Z,1008.22
2018-09-23T03:38:08.563Z,1008.15
2018-09-23T03:39:08.518Z,1008.11
2018-09-23T03:40:08.502Z,1008.05
2018-09-23T03:41:08.456Z,1007.98
2018-09-23T03:42:08.422Z,1008.02
2018-09-23T03:43:08.389Z,1008.03
2018-09-23T03:44:08.356Z,1008.04
2018-09-23T03:45:08.341Z,1007.98
2018-09-23T03:46:08.291Z,1007.96
2018-09-23T03:47:08.254Z,1007.96
2018-09-23T03:48:08.225Z,1007.87
2018-09-23T03:49:08.193Z,1007.85
2018-09-23T03:50:08.173Z,1007.87
2018-09-23T03:51:08.131Z,1007.82
2018-09-23T03:52:08.097Z,1007.80
2018-09-23T03:53:08.067Z,1007.81
2018-09-23T03:54:08.033Z,1007.80
2018-09-23T03:55:08.005Z,1007.79
2018-09-23T03:56:07.968Z,1007.73
2018-09-23T03:57:07.936Z,1007.68
2018-09-23T03:58:07.928Z,1007.64
2018-09-23T03:59:07.871Z,1007.63
2018-09-23T04:00:07.842Z,1007.54
2018-09-23T04:01:07.804Z,1007.44
2018-09-23T04:02:07.775Z,1007.38
2018-09-23T04:03:07.749Z,1007.28
2018-09-23T04:04:07.711Z,1007.24
2018-09-23T04:05:07.689Z,1007.31
2018-09-23T04:06:07.642Z,1007.33
2018-09-23T04:07:07.611Z,1007.32
2018-09-23T04:08:07.580Z,1007.34
2018-09-23T04:09:07.545Z,1007.29
2018-09-23T04:10:07.518Z,1007.30
2018-09-23T04:11:07.490Z,1007.29
2018-09-23T04:12:07.478Z,1007.33
2018-09-23T04:13:07.414Z,1007.40
2018-09-23T04:14:07.389Z,1007.40
2018-09-23T04:15:07.351Z,1007.47
2018-09-23T04:16:07.329Z,1007.45
2018-09-23T04:17:07.284Z,1007.46
2018-09-23T04:18:07.254Z,1007.47
2018-09-23T04:19:07.221Z,1007.48
2018-09-23T04:20:07.191Z,1007.45
2018-09-23T04:21:07.164Z,1007.46
2018-09-23T04:22:07.134Z,1007.48
2018-09-23T04:23:07.091Z,1007.49
2018-09-23T04:24:07.061Z,1007.50
2018-09-23T04:25:07.032Z,1007.55
2018-09-23T04:26:07.051Z,1007.55
2018-09-23T04:27:06.964Z,1007.49
2018-09-23T04:28:06.930Z,1007.43
2018-09-23T04:29:06.906Z,1007.42
2018-09-23T04:30:06.866Z,1007.34
2018-09-23T04:31:06.840Z,1007.32
2018-09-23T04:32:06.802Z,1007.27
2018-09-23T04:33:06.768Z,1007.30
2018-09-23T04:34:06.733Z,1007.29
2018-09-23T04:35:06.704Z,1007.25
2018-09-23T04:36:06.690Z,1007.21
2018-09-23T04:37:06.636Z,1007.16
2018-09-23T04:38:06.604Z,1007.16
2018-09-23T04:39:06.575Z,1007.21
2018-09-23T04:40:06.539Z,1007.29
2018-09-23T04:41:06.508Z,1007.34
2018-09-23T04:42:06.482Z,1007.42
2018-09-23T04:43:06.443Z,1007.41
2018-09-23T04:44:06.407Z,1007.42
2018-09-23T04:45:06.450Z,1007.42
2018-09-23T04:46:06.345Z,1007.38
2018-09-23T04:47:06.318Z,1007.39
2018-09-23T04:48:06.298Z,1007.40
2018-09-23T04:49:06.245Z,1007.40
2018-09-23T04:50:06.216Z,1007.41
2018-09-23T04:51:06.185Z,1007.30
2018-09-23T04:52:07.063Z,1007.26
2018-09-23T04:53:06.114Z,1007.25
2018-09-23T04:54:06.083Z,1007.21
2018-09-23T04:55:06.052Z,1007.26
2018-09-23T04:56:06.021Z,1007.23
2018-09-23T04:57:05.993Z,1007.25
2018-09-23T04:58:05.953Z,1007.24
2018-09-23T04:59:05.921Z,1007.24
2018-09-23T05:00:05.895Z,1007.23
2018-09-23T05:01:05.855Z,1007.26
2018-09-23T05:02:05.836Z,1007.28
2018-09-23T05:03:05.796Z,1007.28
2018-09-23T05:04:05.761Z,1007.24
2018-09-23T05:05:05.725Z,1007.19
2018-09-23T05:06:05.694Z,1007.18
2018-09-23T05:07:05.673Z,1007.16
2018-09-23T05:08:05.632Z,1007.10
2018-09-23T05:09:05.594Z,1007.06
2018-09-23T05:10:05.563Z,1006.98
2018-09-23T05:11:05.530Z,1006.91
2018-09-23T05:12:05.512Z,1006.87
2018-09-23T05:13:05.466Z,1006.87
2018-09-23T05:14:05.473Z,1006.96
2018-09-23T05:15:05.398Z,1007.09
2018-09-23T05:16:05.368Z,1007.21
2018-09-23T05:17:05.336Z,1007.23
2018-09-23T05:18:05.312Z,1007.29
2018-09-23T05:19:05.277Z,1007.29
2018-09-23T05:20:05.237Z,1007.28
2018-09-23T05:21:05.205Z,1007.24
2018-09-23T05:22:05.172Z,1007.20
2018-09-23T05:23:05.154Z,1007.16
2018-09-23T05:24:05.135Z,1007.13
2018-09-23T05:25:05.072Z,1007.14
2018-09-23T05:26:05.043Z,1007.14
2018-09-23T05:27:05.012Z,1007.20
2018-09-23T05:28:04.986Z,1007.21
2018-09-23T05:29:04.944Z,1007.20
2018-09-23T05:30:04.913Z,1007.22
2018-09-23T05:31:04.914Z,1007.21
2018-09-23T05:32:04.852Z,1007.18
2018-09-23T05:33:05.096Z,1007.17
2018-09-23T05:34:04.781Z,1007.09
2018-09-23T05:35:04.748Z,1007.10
2018-09-23T05:36:04.716Z,1007.08
2018-09-23T05:37:04.688Z,1007.11
2018-09-23T05:38:04.664Z,1007.10
2018-09-23T05:39:04.618Z,1007.15
2018-09-23T05:40:04.586Z,1007.16
2018-09-23T05:41:04.552Z,1007.16
2018-09-23T05:42:04.522Z,1007.11
2018-09-23T05:43:04.488Z,1007.15
2018-09-23T05:44:04.549Z,1007.13
2018-09-23T05:45:04.422Z,1007.13
2018-09-23T05:46:04.388Z,1007.15
2018-09-23T05:47:04.357Z,1007.17
2018-09-23T05:48:04.324Z,1007.19
2018-09-23T05:49:04.304Z,1007.20
2018-09-23T05:50:04.261Z,1007.18
2018-09-23T05:51:04.223Z,1007.14
2018-09-23T05:52:04.194Z,1007.03
2018-09-23T05:53:05.052Z,1006.94
2018-09-23T05:54:04.144Z,1006.84
2018-09-23T05:55:04.099Z,1006.82
2018-09-23T05:56:04.064Z,1006.81
2018-09-23T05:57:04.031Z,1006.77
2018-09-23T05:58:03.997Z,1006.78
2018-09-23T05:59:03.971Z,1006.83
2018-09-23T06:00:03.932Z,1006.79
2018-09-23T06:01:03.901Z,1006.79
2018-09-23T06:02:03.875Z,1006.77
2018-09-23T06:03:03.885Z,1006.76
2018-09-23T06:04:04.603Z,1006.73
2018-09-23T06:05:03.769Z,1006.76
2018-09-23T06:06:03.737Z,1006.70
2018-09-23T06:07:03.708Z,1006.66
2018-09-23T06:08:03.673Z,1006.66
2018-09-23T06:09:03.648Z,1006.62
2018-09-23T06:10:03.606Z,1006.65
2018-09-23T06:11:03.585Z,1006.66
2018-09-23T06:12:03.546Z,1006.71
2018-09-23T06:13:03.510Z,1006.75
2018-09-23T06:14:03.498Z,1006.76
2018-09-23T06:15:03.444Z,1006.79
2018-09-23T06:16:03.414Z,1006.84
2018-09-23T06:17:03.377Z,1006.97
2018-09-23T06:18:03.345Z,1007.04
2018-09-23T06:19:03.313Z,1007.07
2018-09-23T06:20:03.290Z,1007.00
2018-09-23T06:21:03.248Z,1006.93
2018-09-23T06:22:03.214Z,1006.81
2018-09-23T06:23:03.186Z,1006.80
2018-09-23T06:24:03.150Z,1006.84
2018-09-23T06:25:03.171Z,1006.83
2018-09-23T06:26:03.090Z,1006.83
2018-09-23T06:27:03.057Z,1006.83
2018-09-23T06:28:03.024Z,1006.79
2018-09-23T06:29:02.989Z,1006.83
2018-09-23T06:30:02.967Z,1006.83
2018-09-23T06:31:03.605Z,1006.82
2018-09-23T06:32:02.890Z,1006.87
2018-09-23T06:33:02.866Z,1006.85
2018-09-23T06:34:02.883Z,1006.77
2018-09-23T06:35:02.803Z,1006.73
2018-09-23T06:36:02.763Z,1006.73
2018-09-23T06:37:02.769Z,1006.67
2018-09-23T06:38:02.699Z,1006.67
2018-09-23T06:39:02.668Z,1006.67
2018-09-23T06:40:02.645Z,1006.65
2018-09-23T06:41:02.600Z,1006.70
2018-09-23T06:42:02.568Z,1006.68
2018-09-23T06:43:02.535Z,1006.71
2018-09-23T06:44:02.505Z,1006.65
2018-09-23T06:45:02.494Z,1006.60
2018-09-23T06:46:02.440Z,1006.55
2018-09-23T06:47:02.407Z,1006.47
2018-09-23T06:48:02.377Z,1006.49
2018-09-23T06:49:02.337Z,1006.46
2018-09-23T06:50:02.585Z,1006.48
2018-09-23T06:51:02.292Z,1006.54
2018-09-23T06:52:02.243Z,1006.55
2018-09-23T06:53:02.217Z,1006.61
2018-09-23T06:54:02.178Z,1006.68
2018-09-23T06:55:02.146Z,1006.70
2018-09-23T06:56:02.141Z,1006.70
2018-09-23T06:57:02.104Z,1006.71
2018-09-23T06:58:02.052Z,1006.74
2018-09-23T06:59:02.019Z,1006.80
2018-09-23T07:00:01.987Z,1006.83
2018-09-23T07:01:01.959Z,1006.84
2018-09-23T07:02:01.919Z,1006.92
2018-09-23T07:03:01.888Z,1006.87
2018-09-23T07:04:01.862Z,1006.84
2018-09-23T07:05:01.919Z,1006.75
2018-09-23T07:06:02.044Z,1006.73
2018-09-23T07:07:01.758Z,1006.69
2018-09-23T07:08:01.732Z,1006.65
2018-09-23T07:09:01.697Z,1006.60
2018-09-23T07:10:01.664Z,1006.52
2018-09-23T07:11:01.640Z,1006.46
2018-09-23T07:12:01.601Z,1006.42
2018-09-23T07:13:01.569Z,1006.43
2018-09-23T07:14:01.532Z,1006.43
2018-09-23T07:15:01.502Z,1006.44
2018-09-23T07:16:01.491Z,1006.54
2018-09-23T07:17:01.440Z,1006.54
2018-09-23T07:18:01.476Z,1006.58
2018-09-23T07:19:01.374Z,1006.60
2018-09-23T07:20:01.342Z,1006.61
2018-09-23T07:21:01.309Z,1006.62
2018-09-23T07:22:01.281Z,1006.61
2018-09-23T07:23:01.243Z,1006.61
2018-09-23T07:24:01.375Z,1006.62
2018-09-23T07:25:01.184Z,1006.64
2018-09-23T07:26:01.150Z,1006.62
2018-09-23T07:27:01.125Z,1006.53
2018-09-23T07:28:01.093Z,1006.53
2018-09-23T07:29:01.049Z,1006.49
2018-09-23T07:30:01.040Z,1006.53
2018-09-23T07:31:00.990Z,1006.58
2018-09-23T07:32:00.964Z,1006.57
2018-09-23T07:33:00.956Z,1006.57
2018-09-23T07:34:00.892Z,1006.49
2018-09-23T07:35:00.858Z,1006.43
2018-09-23T07:36:00.828Z,1006.41
2018-09-23T07:37:01.734Z,1006.34
2018-09-23T07:38:00.762Z,1006.31
2018-09-23T07:39:00.733Z,1006.26
2018-09-23T07:40:00.761Z,1006.31
2018-09-23T07:41:00.669Z,1006.33
2018-09-23T07:42:00.644Z,1006.27
2018-09-23T07:43:00.603Z,1006.27
2018-09-23T07:44:00.570Z,1006.20
2018-09-23T07:45:00.536Z,1006.16
2018-09-23T07:46:00.511Z,1006.12
2018-09-23T07:47:00.491Z,1006.13
2018-09-23T07:48:00.452Z,1006.13
2018-09-23T07:49:00.412Z,1006.10
2018-09-23T07:50:00.379Z,1006.08
2018-09-23T07:51:00.349Z,1006.02
2018-09-23T07:52:00.323Z,1006.06
2018-09-23T07:53:00.309Z,1006.04
2018-09-23T07:54:00.262Z,1006.05
2018-09-23T07:55:01.082Z,1005.97
2018-09-23T07:56:00.191Z,1006.02
2018-09-23T07:57:00.162Z,1005.98
2018-09-23T07:58:00.141Z,1005.92
2018-09-23T07:59:00.103Z,1005.89
2018-09-23T08:00:00.071Z,1005.94
2018-09-23T08:01:00.665Z,1005.97
2018-09-23T08:01:59.998Z,1006.02
2018-09-23T08:02:59.977Z,1006.08
2018-09-23T08:03:59.935Z,1006.11
2018-09-23T08:04:59.904Z,1006.16
2018-09-23T08:05:59.876Z,1006.13
2018-09-23T08:06:59.855Z,1006.11
2018-09-23T08:07:59.832Z,1006.09
2018-09-23T08:08:59.775Z,1006.05
2018-09-23T08:09:59.746Z,1006.04
2018-09-23T08:10:59.718Z,1005.96
2018-09-23T08:11:59.683Z,1006.02
2018-09-23T08:12:59.864Z,1006.03
2018-09-23T08:14:00.040Z,1006.04
2018-09-23T08:14:59.776Z,1005.99
2018-09-23T08:15:59.558Z,1005.95
2018-09-23T08:16:59.522Z,1005.90
2018-09-23T08:17:59.492Z,1005.91
2018-09-23T08:18:59.470Z,1005.94
2018-09-23T08:19:59.497Z,1005.97
2018-09-23T08:20:59.515Z,1005.99
2018-09-23T08:21:59.369Z,1006.02
2018-09-23T08:22:59.364Z,1005.92
2018-09-23T08:23:59.331Z,1005.92
2018-09-23T08:24:59.275Z,1005.92
2018-09-23T08:25:59.243Z,1005.82
2018-09-23T08:26:59.213Z,1005.81
2018-09-23T08:27:59.182Z,1005.77
2018-09-23T08:28:59.159Z,1005.76
2018-09-23T08:29:59.117Z,1005.76
2018-09-23T08:30:59.106Z,1005.73
2018-09-23T08:31:59.056Z,1005.71
2018-09-23T08:32:59.082Z,1005.72
2018-09-23T08:33:59.008Z,1005.72
2018-09-23T08:34:58.963Z,1005.62
2018-09-23T08:35:58.929Z,1005.60
2018-09-23T08:36:58.899Z,1005.57
2018-09-23T08:37:58.998Z,1005.60
2018-09-23T08:38:58.848Z,1005.64
2018-09-23T08:39:58.813Z,1005.69
2018-09-23T08:40:58.771Z,1005.66
2018-09-23T08:41:58.742Z,1005.62
2018-09-23T08:42:58.744Z,1005.58
2018-09-23T08:43:58.679Z,1005.59
2018-09-23T08:44:58.659Z,1005.61
2018-09-23T08:45:58.619Z,1005.63
2018-09-23T08:46:58.590Z,1005.60
2018-09-23T08:47:58.576Z,1005.63
2018-09-23T08:48:58.530Z,1005.58
2018-09-23T08:49:58.501Z,1005.55
2018-09-23T08:50:58.463Z,1005.53
2018-09-23T08:51:58.518Z,1005.54
2018-09-23T08:52:58.405Z,1005.51
2018-09-23T08:53:58.372Z,1005.59
2018-09-23T08:54:58.358Z,1005.63
2018-09-23T08:55:58.312Z,1005.70
2018-09-23T08:56:58.281Z,1005.62
2018-09-23T08:57:58.254Z,1005.58
2018-09-23T08:58:58.217Z,1005.55
2018-09-23T08:59:58.209Z,1005.52
2018-09-23T09:00:58.153Z,1005.49
2018-09-23T09:01:58.121Z,1005.50
2018-09-23T09:02:58.090Z,1005.51
2018-09-23T09:03:58.062Z,1005.50
2018-09-23T09:04:58.028Z,1005.49
2018-09-23T09:05:58.015Z,1005.46
2018-09-23T09:06:57.968Z,1005.44
2018-09-23T09:07:57.939Z,1005.38
2018-09-23T09:08:57.902Z,1005.38
2018-09-23T09:09:57.907Z,1005.39
2018-09-23T09:10:57.849Z,1005.36
2018-09-23T09:11:57.854Z,1005.32
2018-09-23T09:12:57.779Z,1005.30
2018-09-23T09:13:57.747Z,1005.27
2018-09-23T09:14:57.716Z,1005.21
2018-09-23T09:15:57.714Z,1005.19
2018-09-23T09:16:57.654Z,1005.22
2018-09-23T09:17:57.623Z,1005.20
2018-09-23T09:18:57.596Z,1005.21
2018-09-23T09:19:57.561Z,1005.16
2018-09-23T09:20:57.541Z,1005.16
2018-09-23T09:21:57.497Z,1005.14
2018-09-23T09:22:57.467Z,1005.16
2018-09-23T09:23:57.437Z,1005.21
2018-09-23T09:24:57.406Z,1005.23
2018-09-23T09:25:57.382Z,1005.26
2018-09-23T09:26:57.384Z,1005.25
2018-09-23T09:27:57.318Z,1005.15
2018-09-23T09:28:57.284Z,1005.13
2018-09-23T09:29:57.250Z,1005.01
2018-09-23T09:30:57.249Z,1004.88
2018-09-23T09:31:57.188Z,1004.83
2018-09-23T09:32:57.157Z,1004.82
2018-09-23T09:33:57.129Z,1004.75
2018-09-23T09:34:57.095Z,1004.70
2018-09-23T09:35:57.066Z,1004.69
2018-09-23T09:36:57.041Z,1004.70
2018-09-23T09:37:57.002Z,1004.73
2018-09-23T09:38:56.972Z,1004.68
2018-09-23T09:39:56.940Z,1004.67
2018-09-23T09:40:56.910Z,1004.63
2018-09-23T09:41:56.892Z,1004.73
2018-09-23T09:42:56.854Z,1004.71
2018-09-23T09:43:56.872Z,1004.72
2018-09-23T09:44:56.792Z,1004.72
2018-09-23T09:45:56.757Z,1004.73
2018-09-23T09:46:56.735Z,1004.65
2018-09-23T09:47:56.695Z,1004.63
2018-09-23T09:48:56.660Z,1004.68
2018-09-23T09:49:56.633Z,1004.61
2018-09-23T09:50:56.601Z,1004.62
2018-09-23T09:51:56.601Z,1004.63
2018-09-23T09:52:56.539Z,1004.68
2018-09-23T09:53:56.514Z,1004.63
2018-09-23T09:54:56.478Z,1004.61
2018-09-23T09:55:56.444Z,1004.57
2018-09-23T09:56:56.417Z,1004.62
2018-09-23T09:57:56.396Z,1004.65
2018-09-23T09:58:56.358Z,1004.60
2018-09-23T09:59:56.324Z,1004.60
2018-09-23T10:00:56.314Z,1004.56
2018-09-23T10:01:56.267Z,1004.56
2018-09-23T10:02:56.239Z,1004.57
2018-09-23T10:03:56.279Z,1004.50
2018-09-23T10:04:56.171Z,1004.47
2018-09-23T10:05:56.143Z,1004.48
2018-09-23T10:06:56.106Z,1004.46
2018-09-23T10:07:56.085Z,1004.48
2018-09-23T10:08:56.045Z,1004.49
2018-09-23T10:09:56.015Z,1004.53
2018-09-23T10:10:55.983Z,1004.51
2018-09-23T10:11:55.952Z,1004.55
2018-09-23T10:12:55.940Z,1004.53
2018-09-23T10:13:55.891Z,1004.63
2018-09-23T10:14:55.856Z,1004.68
2018-09-23T10:15:55.825Z,1004.68
2018-09-23T10:16:55.798Z,1004.66
2018-09-23T10:17:55.771Z,1004.71
2018-09-23T10:18:55.737Z,1004.65
2018-09-23T10:19:55.704Z,1004.54
2018-09-23T10:20:55.856Z,1004.41
2018-09-23T10:21:56.204Z,1004.32
2018-09-23T10:22:56.861Z,1004.17
2018-09-23T10:23:55.674Z,1004.12
2018-09-23T10:24:55.545Z,1004.14
2018-09-23T10:25:55.515Z,1004.16
2018-09-23T10:26:55.484Z,1004.21
2018-09-23T10:27:55.478Z,1004.24
2018-09-23T10:28:55.418Z,1004.25
2018-09-23T10:29:55.431Z,1004.30
2018-09-23T10:30:55.374Z,1004.24
2018-09-23T10:31:55.425Z,1004.25
2018-09-23T10:32:56.236Z,1004.26
2018-09-23T10:33:55.343Z,1004.28
2018-09-23T10:34:55.737Z,1004.26
2018-09-23T10:35:55.336Z,1004.33
2018-09-23T10:36:55.306Z,1004.35
2018-09-23T10:37:55.670Z,1004.42
2018-09-23T10:38:55.109Z,1004.45
2018-09-23T10:39:55.069Z,1004.48
2018-09-23T10:40:55.043Z,1004.58
2018-09-23T10:41:55.024Z,1004.64
2018-09-23T10:42:54.972Z,1004.72
2018-09-23T10:43:54.949Z,1004.75
2018-09-23T10:44:54.938Z,1004.84
2018-09-23T10:45:54.876Z,1004.86
2018-09-23T10:46:54.847Z,1004.94
2018-09-23T10:47:54.817Z,1004.93
2018-09-23T10:48:54.801Z,1004.91
2018-09-23T10:49:54.745Z,1004.83
2018-09-23T10:50:54.718Z,1004.87
2018-09-23T10:51:54.682Z,1004.85
2018-09-23T10:52:54.655Z,1004.83
2018-09-23T10:53:54.620Z,1004.70
2018-09-23T10:54:54.595Z,1004.59
2018-09-23T10:55:54.557Z,1004.44
2018-09-23T10:56:54.526Z,1004.36
2018-09-23T10:57:54.489Z,1004.35
2018-09-23T10:58:54.461Z,1004.32
2018-09-23T10:59:54.475Z,1004.34
2018-09-23T11:00:54.394Z,1004.38
2018-09-23T11:01:54.361Z,1004.29
2018-09-23T11:02:54.327Z,1004.28
2018-09-23T11:03:54.372Z,1004.23
2018-09-23T11:04:54.281Z,1004.19
2018-09-23T11:05:54.231Z,1004.17
2018-09-23T11:06:54.198Z,1004.15
2018-09-23T11:07:54.164Z,1004.12
2018-09-23T11:08:54.133Z,1004.10
2018-09-23T11:09:54.157Z,1004.05
2018-09-23T11:10:54.065Z,1004.05
2018-09-23T11:11:54.043Z,1003.99
2018-09-23T11:12:54.011Z,1003.98
2018-09-23T11:13:53.978Z,1003.96
2018-09-23T11:14:53.949Z,1003.95
2018-09-23T11:15:53.924Z,1003.97
2018-09-23T11:16:53.872Z,1003.92
2018-09-23T11:17:53.842Z,1003.98
2018-09-23T11:18:53.808Z,1003.94
2018-09-23T11:19:53.787Z,1003.99
2018-09-23T11:20:53.745Z,1004.06
2018-09-23T11:21:53.714Z,1004.17
2018-09-23T11:22:53.687Z,1004.23
2018-09-23T11:23:53.641Z,1004.27
2018-09-23T11:24:53.712Z,1004.24
2018-09-23T11:25:53.584Z,1004.27
2018-09-23T11:26:53.556Z,1004.24
2018-09-23T11:27:53.519Z,1004.21
2018-09-23T11:28:53.482Z,1004.21
2018-09-23T11:29:53.450Z,1004.22
2018-09-23T11:30:53.446Z,1004.23
2018-09-23T11:31:53.385Z,1004.22
2018-09-23T11:32:53.352Z,1004.16
2018-09-23T11:33:53.321Z,1004.11
2018-09-23T11:34:53.290Z,1004.13
2018-09-23T11:35:53.267Z,1004.09
2018-09-23T11:36:53.221Z,1004.09
2018-09-23T11:37:53.189Z,1004.07
2018-09-23T11:38:53.162Z,1003.97
2018-09-23T11:39:53.132Z,1003.91
2018-09-23T11:40:53.104Z,1003.85
2018-09-23T11:41:53.705Z,1003.84
2018-09-23T11:42:53.044Z,1003.77
2018-09-23T11:43:52.994Z,1003.70
2018-09-23T11:44:52.962Z,1003.62
2018-09-23T11:45:52.947Z,1003.58
2018-09-23T11:46:53.118Z,1003.52
2018-09-23T11:47:52.862Z,1003.50
2018-09-23T11:48:52.831Z,1003.56
2018-09-23T11:49:52.799Z,1003.54
2018-09-23T11:50:52.767Z,1003.54
2018-09-23T11:51:52.746Z,1003.57
2018-09-23T11:52:52.701Z,1003.60
2018-09-23T11:53:52.667Z,1003.53
2018-09-23T11:54:52.635Z,1003.52
2018-09-23T11:55:52.603Z,1003.54
2018-09-23T11:56:52.577Z,1003.50
2018-09-23T11:57:52.537Z,1003.40
2018-09-23T11:58:52.619Z,1003.39
2018-09-23T11:59:52.472Z,1003.41
2018-09-23T12:00:52.443Z,1003.44
2018-09-23T12:01:52.420Z,1003.38
2018-09-23T12:02:52.375Z,1003.43
2018-09-23T12:03:52.339Z,1003.46
2018-09-23T12:04:52.308Z,1003.46